Time;durP1;ratioP1;P1;durP2;ratioP2;P2;SDS_P1;SDS_P2;PMS_P1;PMS_P2;Temp;Humidity;BMP_temperature;BMP_pressure;BME280_temperature;BME280_humidity;BME280_pressure;Samples;Min_cycle;Max_cycle;Signal;HPM_P1;HPM_P2
2022/03/11 00:00:45;;;;;;;41.67;26.42;;;4.10;99.90;;;;;;5013974;28;20451;-70
2022/03/11 00:03:11;;;;;;;35.15;23.77;;;3.90;99.90;;;;;;5008253;28;20085;-70
2022/03/11 00:05:37;;;;;;;43.13;24.27;;;3.90;99.90;;;;;;5010528;28;20042;-71
2022/03/11 00:08:04;;;;;;;33.58;22.50;;;3.80;99.90;;;;;;5007213;28;20046;-71
2022/03/11 00:10:30;;;;;;;34.35;22.27;;;3.70;99.90;;;;;;5009146;28;20471;-70
2022/03/11 00:12:56;;;;;;;33.22;22.73;;;3.70;99.90;;;;;;5009697;28;20054;-70
2022/03/11 00:15:22;;;;;;;38.45;24.00;;;3.60;99.90;;;;;;5006130;28;20377;-70
2022/03/11 00:17:48;;;;;;;40.63;23.17;;;3.60;99.90;;;;;;5010128;28;20042;-71
2022/03/11 00:20:19;;;;;;;37.97;22.67;;;3.60;99.90;;;;;;5009433;28;20042;-70
2022/03/11 00:22:46;;;;;;;37.90;22.92;;;3.60;99.90;;;;;;5009562;28;20053;-70
2022/03/11 00:25:13;;;;;;;36.60;24.92;;;3.50;99.90;;;;;;5003325;28;20054;-70
2022/03/11 00:27:39;;;;;;;37.22;22.83;;;3.60;99.90;;;;;;5009187;28;20141;-71
2022/03/11 00:30:05;;;;;;;39.72;23.15;;;3.60;99.90;;;;;;5006144;28;20124;-70
2022/03/11 00:32:31;;;;;;;33.53;20.70;;;3.60;99.90;;;;;;5009808;28;20041;-70
2022/03/11 00:34:56;;;;;;;38.05;22.63;;;3.60;99.90;;;;;;5005670;28;20042;-70
2022/03/11 00:37:22;;;;;;;33.95;21.48;;;3.50;99.90;;;;;;5008602;28;20049;-70
2022/03/11 00:39:48;;;;;;;35.00;21.40;;;3.50;99.90;;;;;;5008465;28;20100;-70
2022/03/11 00:42:14;;;;;;;48.33;24.77;;;3.50;99.90;;;;;;5001801;28;20613;-70
2022/03/11 00:44:40;;;;;;;38.15;22.02;;;3.50;99.90;;;;;;5003561;28;20058;-70
2022/03/11 00:47:07;;;;;;;33.20;22.23;;;3.50;99.90;;;;;;5009093;28;20056;-70
2022/03/11 00:49:33;;;;;;;42.03;22.80;;;3.40;99.90;;;;;;5007213;28;20796;-70
2022/03/11 00:51:59;;;;;;;32.45;21.77;;;3.50;99.90;;;;;;5009315;28;20049;-70
2022/03/11 00:54:25;;;;;;;30.92;21.10;;;3.50;99.90;;;;;;5006054;28;20121;-70
2022/03/11 00:56:51;;;;;;;34.63;23.10;;;3.60;99.90;;;;;;5009541;28;20503;-70
2022/03/11 00:59:17;;;;;;;37.95;22.98;;;3.60;99.90;;;;;;5001554;28;20417;-70
2022/03/11 01:01:42;;;;;;;38.47;22.10;;;3.60;99.90;;;;;;5009298;28;20046;-70
2022/03/11 01:04:08;;;;;;;35.30;20.70;;;3.60;99.90;;;;;;5007110;28;20590;-70
2022/03/11 01:06:34;;;;;;;37.30;23.70;;;3.60;99.90;;;;;;5009459;28;20630;-70
2022/03/11 01:09:02;;;;;;;38.63;22.98;;;3.60;99.90;;;;;;5005615;28;20073;-70
2022/03/11 01:11:27;;;;;;;36.65;24.15;;;3.70;99.90;;;;;;5010178;28;20117;-70
2022/03/11 01:13:54;;;;;;;31.83;21.75;;;3.70;99.90;;;;;;5001070;28;20144;-70
2022/03/11 01:16:21;;;;;;;41.25;25.40;;;3.70;99.90;;;;;;5009657;28;20042;-71
2022/03/11 01:18:47;;;;;;;32.60;22.40;;;3.70;99.90;;;;;;5015720;28;20831;-71
2022/03/11 01:21:13;;;;;;;46.30;25.25;;;3.70;99.90;;;;;;5008835;28;20050;-72
2022/03/11 01:23:38;;;;;;;42.17;25.02;;;3.70;99.90;;;;;;5008168;28;20079;-71
2022/03/11 01:26:04;;;;;;;37.63;23.65;;;3.70;99.90;;;;;;5006771;28;20045;-71
2022/03/11 01:28:30;;;;;;;40.47;25.95;;;3.70;99.90;;;;;;5007414;28;20061;-71
2022/03/11 01:30:55;;;;;;;43.50;24.17;;;3.70;99.90;;;;;;5007647;28;20050;-71
2022/03/11 01:33:21;;;;;;;47.95;28.42;;;3.70;99.90;;;;;;5008919;28;20125;-71
2022/03/11 01:35:48;;;;;;;43.22;27.45;;;3.70;99.90;;;;;;5008616;28;20050;-71
2022/03/11 01:38:14;;;;;;;49.10;26.45;;;3.70;99.90;;;;;;5008711;28;20050;-71
2022/03/11 01:40:40;;;;;;;46.60;27.20;;;3.60;99.90;;;;;;5004718;28;20412;-71
2022/03/11 01:43:13;;;;;;;54.17;28.65;;;3.60;99.90;;;;;;5007769;28;20054;-71
2022/03/11 01:45:39;;;;;;;49.60;28.48;;;3.60;99.90;;;;;;5004103;28;20427;-71
2022/03/11 01:48:04;;;;;;;42.05;27.25;;;3.50;99.90;;;;;;5006405;28;20058;-72
2022/03/11 01:50:30;;;;;;;48.67;29.02;;;3.50;99.90;;;;;;5004733;28;20049;-71
2022/03/11 01:52:57;;;;;;;50.00;29.98;;;3.50;99.90;;;;;;5004280;28;20100;-71
2022/03/11 01:55:23;;;;;;;55.33;30.88;;;3.50;99.90;;;;;;5008856;28;20045;-71
2022/03/11 01:57:49;;;;;;;49.83;30.58;;;3.40;99.90;;;;;;5007219;28;20129;-71
2022/03/11 02:00:17;;;;;;;50.90;30.33;;;3.40;99.90;;;;;;4988631;28;20050;-71
2022/03/11 02:02:43;;;;;;;59.72;31.02;;;3.40;99.90;;;;;;5007706;28;20065;-71
2022/03/11 02:05:09;;;;;;;46.35;28.75;;;3.40;99.90;;;;;;5011783;28;20045;-71
2022/03/11 02:07:35;;;;;;;58.60;33.53;;;3.40;99.90;;;;;;5019532;28;20653;-72
2022/03/11 02:10:01;;;;;;;49.42;29.73;;;3.40;99.90;;;;;;5015270;28;20053;-71
2022/03/11 02:12:35;;;;;;;53.70;32.97;;;3.50;99.90;;;;;;5010177;28;20071;-70
2022/03/11 02:15:03;;;;;;;68.97;34.95;;;3.40;99.90;;;;;;5001679;28;20050;-71
2022/03/11 02:17:29;;;;;;;59.42;34.03;;;3.50;99.90;;;;;;5011570;28;20041;-71
2022/03/11 02:19:54;;;;;;;61.17;35.65;;;3.50;99.90;;;;;;5010348;28;20417;-71
2022/03/11 02:22:23;;;;;;;60.35;35.90;;;3.50;99.90;;;;;;5010654;28;20120;-72
2022/03/11 02:24:49;;;;;;;;;;;3.50;99.90;;;;;;5012400;28;20038;-71
2022/03/11 02:27:15;;;;;;;74.20;36.03;;;3.40;99.90;;;;;;5003702;28;20353;-71
2022/03/11 02:29:41;;;;;;;56.03;34.67;;;3.50;99.90;;;;;;5010298;28;20054;-71
2022/03/11 02:32:07;;;;;;;60.22;35.25;;;3.40;99.90;;;;;;5004310;28;20057;-71
2022/03/11 02:34:33;;;;;;;68.18;35.97;;;3.40;99.90;;;;;;5003624;28;20054;-70
2022/03/11 02:36:58;;;;;;;78.18;38.35;;;3.40;99.90;;;;;;5008152;28;20104;-71
2022/03/11 02:39:24;;;;;;;66.50;37.13;;;3.40;99.90;;;;;;5000998;28;20046;-71
2022/03/11 02:41:51;;;;;;;74.35;37.42;;;3.40;99.90;;;;;;4999784;28;20038;-71
2022/03/11 02:44:17;;;;;;;61.53;35.80;;;3.30;99.90;;;;;;5003741;28;20104;-71
2022/03/11 02:46:43;;;;;;;70.47;40.03;;;3.30;99.90;;;;;;5011708;28;20100;-71
2022/03/11 02:49:08;;;;;;;73.65;40.45;;;3.30;99.90;;;;;;5011921;28;20049;-71
2022/03/11 02:51:34;;;;;;;69.20;40.70;;;3.30;99.90;;;;;;5010963;28;20568;-71
2022/03/11 02:54:00;;;;;;;83.20;41.97;;;3.20;99.90;;;;;;5010694;28;20057;-71
2022/03/11 02:56:25;;;;;;;75.07;43.42;;;3.20;99.90;;;;;;5011151;28;20045;-71
2022/03/11 02:58:51;;;;;;;76.07;41.25;;;3.20;99.90;;;;;;5007332;28;20049;-71
2022/03/11 03:01:17;;;;;;;82.65;44.17;;;3.20;99.90;;;;;;5008316;28;20100;-70
2022/03/11 03:03:42;;;;;;;69.90;38.97;;;3.20;99.90;;;;;;5009435;28;20050;-70
2022/03/11 03:06:08;;;;;;;73.22;40.83;;;3.10;99.90;;;;;;5006790;28;20041;-71
2022/03/11 03:08:34;;;;;;;71.78;41.58;;;3.10;99.90;;;;;;5010303;28;20783;-70
2022/03/11 03:11:00;;;;;;;74.68;41.42;;;3.10;99.90;;;;;;5009730;28;20046;-70
2022/03/11 03:13:26;;;;;;;72.60;43.05;;;3.10;99.90;;;;;;4999795;28;20100;-70
2022/03/11 03:15:51;;;;;;;81.20;42.63;;;3.10;99.90;;;;;;5002089;28;20069;-70
2022/03/11 03:18:18;;;;;;;74.07;43.13;;;3.10;99.90;;;;;;5010708;28;20136;-70
2022/03/11 03:20:44;;;;;;;84.07;44.90;;;3.10;99.90;;;;;;5004240;28;21436;-70
2022/03/11 03:23:09;;;;;;;73.15;40.78;;;3.10;99.90;;;;;;5017296;28;20170;-70
2022/03/11 03:25:36;;;;;;;82.97;43.88;;;3.10;99.90;;;;;;5010418;28;20065;-70
2022/03/11 03:28:02;;;;;;;74.22;43.00;;;3.10;99.90;;;;;;5010561;28;20053;-71
2022/03/11 03:30:28;;;;;;;76.00;43.45;;;3.10;99.90;;;;;;5007120;28;20049;-71
2022/03/11 03:32:57;;;;;;;87.05;47.90;;;3.10;99.90;;;;;;5011473;28;20041;-70
2022/03/11 03:35:25;;;;;;;74.38;45.58;;;3.00;99.90;;;;;;5011661;28;20045;-71
2022/03/11 03:37:51;;;;;;;87.95;47.33;;;3.00;99.90;;;;;;5009692;28;20119;-70
2022/03/11 03:40:17;;;;;;;85.22;46.95;;;3.00;99.90;;;;;;5010788;28;20034;-70
2022/03/11 03:42:49;;;;;;;72.60;44.25;;;2.90;99.90;;;;;;5010189;28;20642;-71
2022/03/11 03:45:16;;;;;;;76.70;45.08;;;2.90;99.90;;;;;;5007720;28;20169;-71
2022/03/11 03:47:41;;;;;;;93.80;48.47;;;2.80;99.90;;;;;;5005860;28;20045;-71
2022/03/11 03:50:07;;;;;;;86.20;47.85;;;2.90;99.90;;;;;;5001474;28;20103;-71
2022/03/11 03:52:33;;;;;;;85.05;46.65;;;2.80;99.90;;;;;;5004701;28;20073;-70
2022/03/11 03:54:59;;;;;;;94.13;48.17;;;2.90;99.90;;;;;;5007772;28;20076;-71
2022/03/11 03:57:26;;;;;;;81.32;48.47;;;2.90;99.90;;;;;;5009081;28;20057;-71
2022/03/11 03:59:52;;;;;;;85.72;48.67;;;2.80;99.90;;;;;;5010793;28;20042;-71
2022/03/11 04:02:18;;;;;;;89.97;50.80;;;2.80;99.90;;;;;;5007521;28;20069;-70
2022/03/11 04:04:43;;;;;;;93.93;49.55;;;2.80;99.90;;;;;;5010243;28;20061;-71
2022/03/11 04:07:09;;;;;;;86.95;47.90;;;2.70;99.90;;;;;;5006150;28;20049;-71
2022/03/11 04:09:35;;;;;;;88.50;49.28;;;2.70;99.90;;;;;;5009973;28;20053;-71
2022/03/11 04:12:02;;;;;;;96.22;50.38;;;2.70;99.90;;;;;;5004807;28;20046;-71
2022/03/11 04:14:27;;;;;;;89.75;50.60;;;2.70;99.90;;;;;;5017256;28;20046;-70
2022/03/11 04:16:53;;;;;;;87.95;50.78;;;2.70;99.90;;;;;;5010423;28;20053;-70
2022/03/11 04:19:19;;;;;;;97.43;49.28;;;2.60;99.90;;;;;;5010032;28;20064;-71
2022/03/11 04:21:44;;;;;;;80.78;46.65;;;2.60;99.90;;;;;;5009347;28;20666;-71
2022/03/11 04:24:14;;;;;;;85.90;48.67;;;2.50;99.90;;;;;;5008943;28;20533;-71
2022/03/11 04:26:41;;;;;;;91.95;50.25;;;2.50;99.90;;;;;;5011052;28;20045;-71
2022/03/11 04:29:07;;;;;;;86.57;49.17;;;2.50;99.90;;;;;;5013191;28;20149;-71
2022/03/11 04:31:33;;;;;;;89.50;46.80;;;2.50;99.90;;;;;;5015986;28;20502;-72
2022/03/11 04:33:58;;;;;;;98.93;50.45;;;2.50;99.90;;;;;;5015017;28;20402;-73
2022/03/11 04:36:24;;;;;;;96.72;51.22;;;2.50;99.90;;;;;;5009171;28;20129;-71
2022/03/11 04:38:50;;;;;;;86.25;51.47;;;2.50;99.90;;;;;;5008931;28;20115;-73
2022/03/11 04:41:15;;;;;;;87.28;50.00;;;2.50;99.90;;;;;;5015401;28;20053;-72
2022/03/11 04:43:42;;;;;;;95.72;51.80;;;2.50;99.90;;;;;;5007970;28;20311;-72
2022/03/11 04:46:08;;;;;;;89.80;49.50;;;2.50;99.90;;;;;;5008996;28;20054;-72
2022/03/11 04:48:36;;;;;;;99.65;53.30;;;2.40;99.90;;;;;;5016441;28;20049;-72
2022/03/11 04:51:02;;;;;;;89.03;52.70;;;2.40;99.90;;;;;;5010951;28;20065;-72
2022/03/11 04:53:28;;;;;;;92.05;51.10;;;2.40;99.90;;;;;;5013924;28;20152;-71
2022/03/11 04:55:54;;;;;;;89.75;49.30;;;2.50;99.90;;;;;;5014578;28;20168;-71
2022/03/11 04:58:20;;;;;;;83.82;50.28;;;2.50;99.90;;;;;;4997869;28;20154;-72
2022/03/11 05:00:46;;;;;;;91.57;50.88;;;2.40;99.90;;;;;;5007737;28;20485;-71
2022/03/11 05:03:12;;;;;;;80.97;47.80;;;2.40;99.90;;;;;;5021605;28;20050;-71
2022/03/11 05:05:37;;;;;;;95.93;52.92;;;2.40;99.90;;;;;;5013504;28;20503;-71
2022/03/11 05:08:03;;;;;;;98.65;51.85;;;2.40;99.90;;;;;;5023786;28;20045;-72
2022/03/11 05:10:29;;;;;;;91.60;51.10;;;2.40;99.90;;;;;;5009961;28;20503;-72
2022/03/11 05:12:54;;;;;;;95.75;53.42;;;2.30;99.90;;;;;;4999239;28;20428;-72
2022/03/11 05:15:21;;;;;;;97.20;52.67;;;2.30;99.90;;;;;;5004576;28;20050;-71
2022/03/11 05:17:47;;;;;;;92.03;49.75;;;2.30;99.90;;;;;;5008391;28;20050;-71
2022/03/11 05:20:12;;;;;;;94.35;49.88;;;2.30;99.90;;;;;;4998041;28;20056;-71
2022/03/11 05:22:38;;;;;;;98.93;49.60;;;2.30;99.90;;;;;;4996615;28;20042;-71
2022/03/11 05:25:04;;;;;;;93.80;50.20;;;2.20;99.90;;;;;;4998611;28;20054;-71
2022/03/11 05:27:30;;;;;;;91.32;48.88;;;2.20;99.90;;;;;;5002602;28;20205;-71
2022/03/11 05:29:55;;;;;;;86.70;49.75;;;2.10;99.90;;;;;;5002656;28;20132;-71
2022/03/11 05:32:21;;;;;;;90.53;51.75;;;2.10;99.90;;;;;;4991562;28;20042;-71
2022/03/11 05:34:49;;;;;;;92.85;51.58;;;2.10;99.90;;;;;;5000881;28;20061;-71
2022/03/11 05:37:15;;;;;;;94.88;49.35;;;2.10;99.90;;;;;;4997056;28;20054;-70
2022/03/11 05:39:41;;;;;;;89.90;50.97;;;2.10;99.90;;;;;;5006472;28;20089;-72
2022/03/11 05:42:07;;;;;;;104.28;53.08;;;2.10;99.90;;;;;;5001655;28;20077;-71
2022/03/11 05:44:34;;;;;;;91.93;50.20;;;2.10;99.90;;;;;;5000828;28;20054;-71
2022/03/11 05:46:59;;;;;;;95.97;51.22;;;2.10;99.90;;;;;;5001129;28;20042;-71
2022/03/11 05:49:26;;;;;;;91.47;52.47;;;2.10;99.90;;;;;;5005584;28;20045;-71
2022/03/11 05:51:51;;;;;;;96.20;50.55;;;2.10;99.90;;;;;;5005612;28;20056;-71
2022/03/11 05:54:17;;;;;;;85.90;50.67;;;2.10;99.90;;;;;;5000934;28;20430;-71
2022/03/11 05:56:43;;;;;;;98.40;51.60;;;2.10;99.90;;;;;;5000587;28;20065;-71
2022/03/11 05:59:09;;;;;;;95.40;49.92;;;2.00;99.90;;;;;;5000255;28;20050;-71
2022/03/11 06:01:35;;;;;;;94.03;51.47;;;2.00;99.90;;;;;;4999677;28;20399;-71
2022/03/11 06:04:03;;;;;;;107.50;49.40;;;2.00;99.90;;;;;;4999721;28;20143;-71
2022/03/11 06:06:30;;;;;;;94.75;49.53;;;2.00;99.90;;;;;;5003662;28;20049;-71
2022/03/11 06:08:56;;;;;;;98.90;51.55;;;2.10;99.90;;;;;;5010404;28;20036;-72
2022/03/11 06:11:22;;;;;;;89.60;48.88;;;2.10;99.90;;;;;;5008426;28;20053;-71
2022/03/11 06:13:49;;;;;;;96.60;49.42;;;2.10;99.90;;;;;;5008792;28;20046;-71
2022/03/11 06:16:15;;;;;;;86.15;48.33;;;2.20;99.90;;;;;;5006988;28;20124;-70
2022/03/11 06:18:41;;;;;;;82.35;47.70;;;2.30;99.90;;;;;;5008938;28;20121;-72
2022/03/11 06:21:07;;;;;;;93.47;52.17;;;2.30;99.90;;;;;;5006469;28;20050;-71
2022/03/11 06:23:35;;;;;;;95.68;48.05;;;2.40;99.90;;;;;;5009200;28;20424;-71
2022/03/11 06:26:02;;;;;;;93.72;48.88;;;2.40;99.90;;;;;;4993521;28;20059;-71
2022/03/11 06:28:28;;;;;;;93.47;50.03;;;2.50;99.90;;;;;;5005289;28;20038;-70
2022/03/11 06:30:53;;;;;;;86.93;47.97;;;2.50;99.90;;;;;;5004726;28;20845;-71
2022/03/11 06:33:20;;;;;;;87.07;48.67;;;2.60;99.90;;;;;;5008923;28;20056;-70
2022/03/11 06:35:47;;;;;;;103.47;50.33;;;2.70;99.90;;;;;;5006926;28;20041;-69
2022/03/11 06:38:12;;;;;;;90.82;48.22;;;2.80;99.90;;;;;;5008870;28;20058;-68
2022/03/11 06:40:38;;;;;;;92.35;46.65;;;2.90;99.90;;;;;;5000957;28;20046;-69
2022/03/11 06:43:04;;;;;;;94.95;48.22;;;3.00;99.90;;;;;;5005105;28;20115;-69
2022/03/11 06:45:29;;;;;;;88.82;46.67;;;3.10;99.90;;;;;;5004172;28;20477;-69
2022/03/11 06:47:55;;;;;;;89.18;47.22;;;3.10;99.90;;;;;;5003616;28;20069;-69
2022/03/11 06:50:21;;;;;;;86.30;47.25;;;3.20;99.90;;;;;;5004777;28;20046;-69
2022/03/11 06:52:46;;;;;;;87.10;47.83;;;3.20;99.90;;;;;;4995806;28;20046;-69
2022/03/11 06:55:12;;;;;;;86.90;47.33;;;3.30;99.90;;;;;;5008748;28;20149;-69
2022/03/11 06:57:38;;;;;;;89.63;48.45;;;3.30;99.90;;;;;;4993600;28;20414;-70
2022/03/11 07:00:06;;;;;;;78.75;46.72;;;3.40;99.90;;;;;;5002253;28;20470;-69
2022/03/11 07:02:31;;;;;;;83.43;45.60;;;3.50;99.90;;;;;;5000414;28;20046;-69
2022/03/11 07:04:57;;;;;;;94.80;47.55;;;3.50;99.90;;;;;;5008116;28;20100;-69
2022/03/11 07:07:23;;;;;;;84.10;47.00;;;3.60;99.90;;;;;;5003638;28;20056;-69
2022/03/11 07:09:50;;;;;;;87.10;47.38;;;3.70;99.90;;;;;;5003102;28;20149;-69
2022/03/11 07:12:16;;;;;;;79.25;45.72;;;3.80;99.90;;;;;;5000296;28;20050;-70
2022/03/11 07:14:43;;;;;;;91.35;44.00;;;3.80;99.90;;;;;;4998706;28;20046;-69
2022/03/11 07:17:09;;;;;;;76.75;43.72;;;3.90;99.90;;;;;;5006641;28;20049;-69
2022/03/11 07:19:34;;;;;;;95.28;48.40;;;3.90;99.90;;;;;;5002591;28;20085;-69
2022/03/11 07:22:03;;;;;;;81.70;45.00;;;4.00;99.90;;;;;;5004264;28;20043;-69
2022/03/11 07:24:30;;;;;;;;;;;4.00;99.90;;;;;;5013167;28;20054;-69
2022/03/11 07:26:56;;;;;;;89.85;45.47;;;4.00;99.90;;;;;;5024965;28;20399;-69
2022/03/11 07:29:22;;;;;;;89.07;44.58;;;4.00;99.90;;;;;;5008195;28;20491;-69
2022/03/11 07:31:48;;;;;;;80.18;45.60;;;4.10;99.90;;;;;;5006419;28;20042;-70
2022/03/11 07:34:14;;;;;;;85.10;45.58;;;4.10;99.90;;;;;;5013129;28;20046;-70
2022/03/11 07:36:41;;;;;;;90.18;48.28;;;4.20;99.90;;;;;;5011512;28;20045;-69
2022/03/11 07:39:08;;;;;;;92.35;47.65;;;4.30;99.90;;;;;;5006036;28;20042;-70
2022/03/11 07:41:34;;;;;;;92.50;46.53;;;4.40;99.90;;;;;;5017654;28;20045;-69
2022/03/11 07:44:01;;;;;;;87.60;45.47;;;4.40;99.90;;;;;;5011257;28;20080;-68
2022/03/11 07:46:27;;;;;;;89.15;47.10;;;4.50;99.90;;;;;;5007899;28;20046;-69
2022/03/11 07:48:57;;;;;;;108.45;46.30;;;4.50;99.90;;;;;;5017761;28;20054;-69
2022/03/11 07:51:23;;;;;;;74.18;44.22;;;4.50;99.90;;;;;;5004990;28;20374;-69
2022/03/11 07:53:48;;;;;;;86.38;44.40;;;4.60;99.90;;;;;;5001405;28;20065;-69
2022/03/11 07:56:15;;;;;;;76.63;46.17;;;4.60;99.90;;;;;;5008968;28;20125;-69
2022/03/11 07:58:41;;;;;;;87.28;45.92;;;4.70;99.90;;;;;;5009444;28;20049;-70
2022/03/11 08:01:12;;;;;;;78.82;43.95;;;4.80;99.90;;;;;;5012977;28;20080;-69
2022/03/11 08:03:39;;;;;;;77.35;44.15;;;4.80;99.90;;;;;;5008239;28;20502;-70
2022/03/11 08:06:10;;;;;;;78.15;42.90;;;4.90;99.90;;;;;;5006120;28;20838;-70
2022/03/11 08:08:36;;;;;;;84.82;44.15;;;5.00;99.90;;;;;;5002951;28;20061;-70
2022/03/11 08:11:03;;;;;;;83.28;46.90;;;5.10;99.90;;;;;;5004021;28;20064;-70
2022/03/11 08:13:29;;;;;;;82.03;43.75;;;5.30;99.90;;;;;;5009551;28;20403;-70
2022/03/11 08:15:54;;;;;;;81.28;43.47;;;5.40;99.90;;;;;;5006996;28;20050;-69
2022/03/11 08:18:20;;;;;;;82.00;45.10;;;5.40;99.90;;;;;;5010287;28;20175;-70
2022/03/11 08:20:47;;;;;;;82.30;46.22;;;5.60;99.90;;;;;;5010217;28;20050;-70
2022/03/11 08:23:12;;;;;;;87.38;45.63;;;5.70;99.90;;;;;;5005176;28;20041;-71
2022/03/11 08:25:39;;;;;;;81.18;45.70;;;5.70;99.90;;;;;;5009490;28;20038;-71
2022/03/11 08:28:10;;;;;;;76.28;44.50;;;5.80;99.90;;;;;;5014027;28;20048;-71
2022/03/11 08:30:38;;;;;;;81.75;44.28;;;5.90;99.90;;;;;;5008527;28;20064;-70
2022/03/11 08:33:05;;;;;;;77.22;43.38;;;6.00;99.90;;;;;;5007130;28;20053;-70
2022/03/11 08:35:31;;;;;;;83.00;42.97;;;6.00;99.90;;;;;;5016417;28;20380;-69
2022/03/11 08:37:57;;;;;;;83.40;43.22;;;5.90;99.90;;;;;;5003203;28;20052;-70
2022/03/11 08:40:24;;;;;;;85.15;43.97;;;6.00;99.90;;;;;;5008904;28;20049;-70
2022/03/11 08:42:53;;;;;;;81.57;43.42;;;6.10;99.90;;;;;;5010512;28;20060;-69
2022/03/11 08:45:21;;;;;;;78.75;45.88;;;6.10;99.90;;;;;;5009860;28;20058;-70
2022/03/11 08:47:50;;;;;;;79.82;46.60;;;6.10;99.90;;;;;;5022820;28;20503;-69
2022/03/11 08:50:18;;;;;;;74.38;43.13;;;6.10;99.90;;;;;;4998963;28;20514;-69
2022/03/11 08:52:44;;;;;;;83.28;42.30;;;6.20;99.90;;;;;;5002483;28;20665;-69
2022/03/11 08:55:12;;;;;;;83.30;44.95;;;6.20;99.90;;;;;;5003684;28;20120;-71
2022/03/11 08:57:38;;;;;;;82.65;45.22;;;6.30;99.90;;;;;;5009974;28;20103;-69
2022/03/11 09:00:07;;;;;;;88.72;46.50;;;6.40;99.90;;;;;;5013774;28;20140;-71
2022/03/11 09:02:37;;;;;;;89.70;43.60;;;6.50;99.90;;;;;;5008031;28;20058;-71
2022/03/11 09:05:07;;;;;;;87.63;44.75;;;6.70;99.90;;;;;;5007996;28;20053;-70
2022/03/11 09:07:32;;;;;;;80.88;43.65;;;6.80;99.90;;;;;;5016382;28;20034;-71
2022/03/11 09:10:04;;;;;;;84.95;46.42;;;7.00;99.90;;;;;;5009175;28;20052;-71
2022/03/11 09:12:29;;;;;;;81.40;44.15;;;7.10;98.90;;;;;;5002433;28;20041;-70
2022/03/11 09:14:55;;;;;;;84.95;44.30;;;7.20;99.10;;;;;;5004712;28;20052;-70
2022/03/11 09:17:21;;;;;;;83.20;44.05;;;7.30;98.00;;;;;;5010686;28;20054;-70
2022/03/11 09:19:47;;;;;;;87.43;45.53;;;7.30;96.90;;;;;;5004692;28;20074;-70
2022/03/11 09:22:13;;;;;;;82.07;45.13;;;7.40;98.30;;;;;;5008375;28;20038;-71
2022/03/11 09:24:42;;;;;;;85.53;45.92;;;7.60;97.40;;;;;;5007489;28;20046;-70
2022/03/11 09:27:09;;;;;;;82.75;43.78;;;7.60;95.60;;;;;;5010366;28;20128;-71
2022/03/11 09:29:36;;;;;;;82.43;46.37;;;7.70;95.00;;;;;;5012763;28;20050;-69
2022/03/11 09:32:03;;;;;;;79.03;43.63;;;7.80;94.50;;;;;;4994257;28;20354;-70
2022/03/11 09:34:30;;;;;;;75.50;42.20;;;7.80;93.30;;;;;;5012313;28;20104;-71
2022/03/11 09:36:56;;;;;;;84.20;46.43;;;8.00;93.10;;;;;;5018841;28;20049;-70
2022/03/11 09:39:23;;;;;;;79.00;43.70;;;8.00;94.10;;;;;;5005610;28;20527;-71
2022/03/11 09:41:49;;;;;;;79.32;44.03;;;8.00;91.70;;;;;;5012340;28;20080;-70
2022/03/11 09:44:17;;;;;;;71.68;42.78;;;8.00;92.00;;;;;;5009934;28;20365;-70
2022/03/11 09:46:43;;;;;;;77.25;41.70;;;8.00;90.60;;;;;;5011662;28;20045;-70
2022/03/11 09:49:12;;;;;;;73.78;41.63;;;8.30;91.90;;;;;;5005433;28;20068;-70
2022/03/11 09:51:41;;;;;;;85.13;44.25;;;8.40;91.70;;;;;;5011487;28;20076;-69
2022/03/11 09:54:08;;;;;;;88.65;44.10;;;8.60;91.20;;;;;;5004412;28;20056;-70
2022/03/11 09:56:38;;;;;;;73.40;39.97;;;8.70;90.40;;;;;;5018435;28;20084;-70
2022/03/11 09:59:06;;;;;;;81.07;39.58;;;8.60;87.20;;;;;;5007865;28;20872;-70
2022/03/11 10:01:33;;;;;;;73.85;42.08;;;8.70;87.90;;;;;;5003643;28;20575;-70
2022/03/11 10:03:59;;;;;;;71.13;39.95;;;8.80;86.30;;;;;;5002063;28;20112;-71
2022/03/11 10:06:38;;;;;;;82.05;40.40;;;9.00;85.20;;;;;;5013938;28;20056;-70
2022/03/11 10:09:04;;;;;;;70.72;40.17;;;9.10;83.00;;;;;;5004388;28;20042;-70
2022/03/11 10:11:30;;;;;;;80.05;43.45;;;9.30;84.90;;;;;;4993598;28;20046;-70
2022/03/11 10:14:07;;;;;;;78.43;41.42;;;9.30;83.80;;;;;;5008465;28;20497;-70
2022/03/11 10:16:34;;;;;;;67.70;38.15;;;9.20;78.30;;;;;;5002131;28;20054;-70
2022/03/11 10:19:05;;;;;;;72.75;37.92;;;9.40;77.90;;;;;;4999055;28;20120;-70
2022/03/11 10:21:36;;;;;;;80.80;40.72;;;9.50;75.50;;;;;;5002229;28;20046;-72
2022/03/11 10:24:05;;;;;;;65.72;38.63;;;9.60;72.70;;;;;;5003353;28;20132;-71
2022/03/11 10:26:42;;;;;;;77.13;39.45;;;9.70;75.00;;;;;;5004293;28;20042;-71
2022/03/11 10:29:20;;;;;;;74.15;40.13;;;9.80;72.60;;;;;;5006868;28;20056;-71
2022/03/11 10:31:48;;;;;;;78.63;42.83;;;9.80;72.10;;;;;;5005524;28;20046;-72
2022/03/11 10:34:21;;;;;;;70.43;38.95;;;9.90;70.60;;;;;;5006163;28;20502;-72
2022/03/11 10:37:06;;;;;;;71.70;40.17;;;10.00;69.70;;;;;;5006258;28;20046;-71
2022/03/11 10:39:37;;;;;;;80.80;41.13;;;10.00;71.80;;;;;;5006264;28;20080;-71
2022/03/11 10:42:24;;;;;;;71.72;39.63;;;10.10;69.20;;;;;;5005475;28;20573;-71
2022/03/11 10:45:04;;;;;;;70.07;39.05;;;10.10;69.40;;;;;;5004010;28;20054;-71
2022/03/11 10:47:41;;;;;;;68.38;40.22;;;10.00;71.80;;;;;;5006902;28;20061;-70
2022/03/11 10:50:11;;;;;;;66.75;36.50;;;10.10;70.80;;;;;;5008587;28;20144;-71
2022/03/11 10:52:40;;;;;;;73.43;39.70;;;10.20;70.20;;;;;;5007130;28;20053;-71
2022/03/11 10:55:23;;;;;;;69.82;40.00;;;10.20;68.60;;;;;;5005235;28;20080;-71
2022/03/11 10:57:53;;;;;;;60.42;38.72;;;10.30;67.90;;;;;;5006324;28;20049;-72
2022/03/11 11:00:24;;;;;;;66.10;37.03;;;10.40;69.10;;;;;;5006782;28;20045;-71
2022/03/11 11:02:55;;;;;;;63.63;38.83;;;10.50;68.30;;;;;;5007045;28;20050;-71
2022/03/11 11:05:22;;;;;;;69.82;38.72;;;10.50;66.30;;;;;;5006137;28;20530;-72
2022/03/11 11:07:48;;;;;;;70.95;39.42;;;10.40;67.80;;;;;;5004981;28;20499;-72
2022/03/11 11:10:17;;;;;;;78.85;40.15;;;10.40;67.80;;;;;;5006875;28;20079;-71
2022/03/11 11:12:43;;;;;;;63.55;39.08;;;10.40;67.30;;;;;;5006566;28;20046;-71
2022/03/11 11:15:12;;;;;;;63.95;38.10;;;10.50;66.70;;;;;;5004678;28;20085;-72
2022/03/11 11:17:38;;;;;;;;;;;10.60;66.50;;;;;;5005195;28;20045;-72
2022/03/11 11:20:10;;;;;;;60.88;36.15;;;10.80;64.40;;;;;;5004688;28;19932;-71
2022/03/11 11:22:36;;;;;;;60.03;35.45;;;10.80;65.70;;;;;;5005588;28;20073;-72
2022/03/11 11:25:02;;;;;;;58.63;35.05;;;10.90;65.50;;;;;;5004913;28;20045;-72
2022/03/11 11:27:31;;;;;;;63.17;35.97;;;11.00;64.00;;;;;;5005738;28;20044;-72
2022/03/11 11:29:58;;;;;;;67.97;38.00;;;11.10;63.70;;;;;;5005300;28;20060;-72
2022/03/11 11:32:24;;;;;;;64.57;38.72;;;11.20;62.80;;;;;;5004740;28;20388;-70
2022/03/11 11:34:50;;;;;;;64.47;36.33;;;11.10;63.90;;;;;;5006332;28;20052;-70
2022/03/11 11:37:37;;;;;;;64.53;36.00;;;11.10;62.70;;;;;;5003307;28;20042;-72
2022/03/11 11:40:27;;;;;;;62.40;36.55;;;11.20;62.60;;;;;;5005239;28;20077;-71
2022/03/11 11:43:12;;;;;;;66.30;36.75;;;11.10;62.70;;;;;;5004248;28;20054;-72
2022/03/11 11:45:41;;;;;;;64.78;34.42;;;11.30;60.30;;;;;;5004773;28;20089;-71
2022/03/11 11:48:33;;;;;;;61.50;35.35;;;11.40;62.00;;;;;;5005089;28;20535;-71
2022/03/11 11:51:10;;;;;;;60.65;35.55;;;11.60;60.40;;;;;;5002702;28;20080;-73
2022/03/11 11:53:49;;;;;;;56.13;33.25;;;11.70;59.70;;;;;;5003739;28;20076;-72
2022/03/11 11:56:34;;;;;;;56.10;35.35;;;11.70;60.90;;;;;;5002753;28;20050;-72
2022/03/11 11:59:08;;;;;;;60.65;35.97;;;11.80;58.90;;;;;;5005342;28;20058;-71
2022/03/11 12:01:43;;;;;;;56.55;34.03;;;11.90;59.20;;;;;;5004290;28;20042;-71
2022/03/11 12:04:29;;;;;;;62.88;34.63;;;11.80;59.30;;;;;;5004601;28;20049;-71
2022/03/11 12:07:00;;;;;;;48.03;31.15;;;11.70;58.00;;;;;;5003353;28;20053;-71
2022/03/11 12:09:42;;;;;;;67.25;33.65;;;11.80;59.50;;;;;;5003801;28;20060;-71
2022/03/11 12:12:29;;;;;;;66.15;33.97;;;11.60;57.50;;;;;;5003757;28;20411;-71
2022/03/11 12:15:01;;;;;;;59.50;35.50;;;11.70;57.80;;;;;;5004127;28;20054;-71
2022/03/11 12:17:43;;;;;;;53.67;32.08;;;11.80;58.00;;;;;;5005306;28;20317;-72
2022/03/11 12:20:33;;;;;;;57.00;32.53;;;11.80;57.70;;;;;;5004980;28;20614;-71
2022/03/11 12:23:03;;;;;;;62.40;31.48;;;11.90;57.90;;;;;;5005021;28;20112;-71
2022/03/11 12:25:32;;;;;;;55.35;33.28;;;11.80;56.90;;;;;;5003796;28;20054;-71
2022/03/11 12:28:18;;;;;;;57.35;33.42;;;11.90;59.10;;;;;;5003479;28;20104;-72
2022/03/11 12:30:46;;;;;;;54.05;32.55;;;12.10;58.20;;;;;;5004803;28;20057;-71
2022/03/11 12:33:21;;;;;;;59.95;33.30;;;12.10;57.80;;;;;;5003870;28;20046;-71
2022/03/11 12:35:50;;;;;;;50.10;30.23;;;12.20;58.50;;;;;;5004654;28;20042;-71
2022/03/11 12:38:25;;;;;;;60.25;32.80;;;12.30;58.40;;;;;;5003553;28;20053;-71